Time;durP1;ratioP1;P1;durP2;ratioP2;P2;SDS_P1;SDS_P2;PMS_P1;PMS_P2;Temp;Humidity;BMP_temperature;BMP_pressure;BME280_temperature;BME280_humidity;BME280_pressure;Samples;Min_cycle;Max_cycle;Signal;HPM_P1;HPM_P2
2023/05/11 00:02:16;;;;;;;2.43;1.90;;;;;;;17.03;59.92;97672.97;8484918;27;20455;-69
2023/05/11 00:06:20;;;;;;;4.63;1.83;;;;;;;16.97;60.26;97662.97;8475810;27;20232;-70
2023/05/11 00:10:23;;;;;;;2.17;1.93;;;;;;;16.99;60.82;97659.28;8484237;28;20236;-69
2023/05/11 00:14:26;;;;;;;3.90;2.13;;;;;;;16.94;60.28;97655.34;8484298;27;20433;-69
2023/05/11 00:18:29;;;;;;;2.60;2.00;;;;;;;16.91;60.76;97655.59;8484268;27;20302;-69
2023/05/11 00:22:33;;;;;;;3.87;2.10;;;;;;;16.89;60.88;97660.09;8483860;27;20266;-69
2023/05/11 00:26:36;;;;;;;2.40;2.20;;;;;;;16.72;60.85;97643.84;8484150;27;20236;-69
2023/05/11 00:30:39;;;;;;;2.23;2.07;;;;;;;16.86;60.59;97652.47;8483769;27;20245;-69
2023/05/11 00:34:42;;;;;;;2.60;2.10;;;;;;;16.87;60.88;97652.38;8483892;27;20230;-69
2023/05/11 00:38:48;;;;;;;2.80;2.00;;;;;;;16.75;61.11;97640.16;8483361;27;20237;-70
2023/05/11 00:42:51;;;;;;;2.00;1.90;;;;;;;16.87;61.01;97646.28;8483189;27;20235;-70
2023/05/11 00:46:54;;;;;;;2.87;2.13;;;;;;;16.88;60.83;97645.34;8483380;27;20229;-70
2023/05/11 00:51:01;;;;;;;3.80;2.10;;;;;;;16.84;61.24;97647.34;8483131;28;20391;-69
2023/05/11 00:55:07;;;;;;;2.30;2.10;;;;;;;16.86;61.03;97642.00;8482678;27;20239;-69
2023/05/11 00:59:10;;;;;;;2.73;2.30;;;;;;;16.74;61.54;97643.75;8483038;27;20228;-70
2023/05/11 01:03:13;;;;;;;2.77;2.53;;;;;;;16.75;61.73;97646.25;8482723;27;20233;-70
2023/05/11 01:07:19;;;;;;;2.70;2.50;;;;;;;16.77;61.56;97651.34;8482548;28;20229;-70
2023/05/11 01:11:29;;;;;;;3.77;2.20;;;;;;;16.82;61.45;97654.47;8482067;28;20228;-69
2023/05/11 01:15:36;;;;;;;3.13;2.57;;;;;;;16.65;61.69;97637.41;8482629;27;20229;-70
2023/05/11 01:19:42;;;;;;;2.83;2.63;;;;;;;16.70;61.84;97645.75;8482519;27;20245;-69
2023/05/11 01:23:58;;;;;;;2.87;2.47;;;;;;;16.67;61.90;97650.38;8481865;28;20225;-69
2023/05/11 01:28:29;;;;;;;4.10;2.50;;;;;;;16.70;60.78;97650.16;8482082;27;20235;-70
2023/05/11 01:32:34;;;;;;;2.97;2.67;;;;;;;16.59;61.41;97643.09;8481548;27;20225;-69
2023/05/11 01:36:42;;;;;;;3.20;2.67;;;;;;;16.65;61.05;97650.47;8481807;27;20248;-69
2023/05/11 01:40:50;;;;;;;3.70;2.63;;;;;;;16.58;61.96;97655.34;8481154;27;20283;-69
2023/05/11 01:44:54;;;;;;;2.70;2.50;;;;;;;16.59;61.88;97651.75;8481547;27;20549;-70
2023/05/11 01:48:59;;;;;;;3.03;2.73;;;;;;;16.61;61.77;97652.47;8481368;28;20235;-70
2023/05/11 01:53:02;;;;;;;4.17;2.90;;;;;;;16.51;62.35;97648.06;8481197;27;20223;-70
2023/05/11 01:57:06;;;;;;;2.90;2.70;;;;;;;16.55;61.36;97639.88;8480954;28;20237;-70
2023/05/11 02:01:11;;;;;;;3.57;2.60;;;;;;;16.52;61.42;97653.16;8481107;27;20239;-70
2023/05/11 02:05:18;;;;;;;3.57;3.20;;;;;;;16.55;62.06;97649.50;8480451;27;20232;-70
2023/05/11 02:09:22;;;;;;;3.33;3.03;;;;;;;16.48;61.07;97643.88;8479816;27;20242;-70
2023/05/11 02:13:27;;;;;;;5.33;2.90;;;;;;;16.47;61.20;97644.84;8480582;28;20460;-70
2023/05/11 02:17:30;;;;;;;3.03;2.83;;;;;;;16.47;61.58;97649.19;8480506;27;20426;-70
2023/05/11 02:21:34;;;;;;;3.40;2.80;;;;;;;16.40;61.93;97647.03;8480231;27;20228;-70
2023/05/11 02:25:38;;;;;;;3.37;3.10;;;;;;;16.44;61.19;97645.03;8480117;28;20250;-70
2023/05/11 02:29:41;;;;;;;4.57;3.20;;;;;;;16.36;61.63;97640.38;8479694;27;20235;-70
2023/05/11 02:33:48;;;;;;;5.20;2.83;;;;;;;16.41;61.62;97643.50;8480030;27;20429;-70
2023/05/11 02:37:58;;;;;;;3.47;3.17;;;;;;;16.41;61.40;97640.88;8479974;27;20244;-70
2023/05/11 02:42:06;;;;;;;3.30;3.10;;;;;;;16.35;61.26;97641.31;8478485;28;20553;-69
2023/05/11 02:46:13;;;;;;;6.30;3.10;;;;;;;16.36;61.56;97640.38;8480060;28;20228;-70
2023/05/11 02:50:18;;;;;;;4.03;2.70;;;;;;;16.30;61.33;97630.38;8479547;28;20290;-70
2023/05/11 02:54:23;;;;;;;4.17;2.97;;;;;;;16.32;61.40;97636.34;8479004;27;20237;-70
2023/05/11 02:58:25;;;;;;;4.47;2.90;;;;;;;16.31;61.47;97637.25;8479647;27;20391;-69
2023/05/11 03:02:29;;;;;;;3.20;2.87;;;;;;;16.34;61.32;97633.63;8479496;28;20235;-70
2023/05/11 03:06:32;;;;;;;4.57;2.97;;;;;;;16.31;61.38;97629.44;8479406;28;20234;-70
2023/05/11 03:10:38;;;;;;;4.77;3.10;;;;;;;16.29;61.70;97630.50;8479158;27;20237;-70
2023/05/11 03:14:44;;;;;;;3.63;3.30;;;;;;;16.28;61.73;97631.41;8479354;28;20235;-70
2023/05/11 03:18:50;;;;;;;3.97;3.30;;;;;;;16.26;61.62;97625.47;8482791;28;20242;-70
2023/05/11 03:22:53;;;;;;;3.13;2.83;;;;;;;16.09;61.73;97609.28;8486177;28;20532;-70
2023/05/11 03:26:57;;;;;;;4.57;3.30;;;;;;;16.23;62.05;97631.78;8485684;27;20233;-70
2023/05/11 03:31:02;;;;;;;2.83;2.63;;;;;;;15.66;61.89;97535.78;8485892;27;20223;-70
2023/05/11 03:35:06;;;;;;;3.60;2.80;;;;;;;16.25;61.80;97631.66;8485641;27;20229;-70
2023/05/11 03:39:11;;;;;;;3.30;3.00;;;;;;;16.18;62.08;97634.72;8485318;28;20384;-70
2023/05/11 03:43:18;;;;;;;2.97;2.77;;;;;;;16.14;61.60;97625.41;8485411;27;20232;-70
2023/05/11 03:47:21;;;;;;;4.27;2.93;;;;;;;16.00;61.88;97597.69;8484799;27;20288;-69
2023/05/11 03:51:24;;;;;;;3.83;3.00;;;;;;;16.11;61.85;97630.06;8484582;27;20559;-70
2023/05/11 03:55:27;;;;;;;3.17;2.60;;;;;;;16.16;61.77;97620.94;8484593;27;20234;-70
2023/05/11 03:59:31;;;;;;;4.07;3.20;;;;;;;16.03;62.12;97618.38;8484691;27;20335;-70
2023/05/11 04:03:35;;;;;;;3.00;2.80;;;;;;;16.11;62.02;97617.81;8484529;28;20310;-70
2023/05/11 04:07:38;;;;;;;3.10;2.90;;;;;;;16.14;61.51;97614.97;8484526;28;20290;-70
2023/05/11 04:11:41;;;;;;;5.00;3.00;;;;;;;16.05;62.12;97614.81;8484117;28;20231;-69
2023/05/11 04:15:45;;;;;;;3.13;2.80;;;;;;;16.08;62.55;97617.22;8484299;27;20251;-70
2023/05/11 04:19:48;;;;;;;3.30;3.00;;;;;;;16.08;62.69;97612.00;8484182;27;20229;-70
2023/05/11 04:23:51;;;;;;;3.30;3.00;;;;;;;16.05;62.35;97623.50;8483933;27;20216;-70
2023/05/11 04:27:53;;;;;;;3.03;2.70;;;;;;;16.06;61.50;97627.75;8483640;27;20223;-70
2023/05/11 04:31:58;;;;;;;3.10;2.90;;;;;;;16.11;62.08;97619.63;8483128;28;20232;-70
2023/05/11 04:36:00;;;;;;;4.07;2.90;;;;;;;16.13;61.97;97620.34;8483638;27;20227;-69
2023/05/11 04:40:04;;;;;;;3.40;3.10;;;;;;;15.99;61.66;97601.28;8483192;28;20235;-69
2023/05/11 04:44:06;;;;;;;3.73;2.83;;;;;;;16.12;61.90;97624.69;8483438;27;20223;-68
2023/05/11 04:48:11;;;;;;;3.00;2.80;;;;;;;16.07;62.50;97628.59;8483424;28;20226;-69
2023/05/11 04:52:15;;;;;;;2.90;2.70;;;;;;;16.07;61.75;97628.59;8483066;28;20235;-68
2023/05/11 04:56:20;;;;;;;3.13;2.93;;;;;;;16.04;61.32;97629.66;8482385;28;20507;-69
2023/05/11 05:00:23;;;;;;;5.23;2.80;;;;;;;16.08;61.48;97635.50;8482609;27;20227;-69
2023/05/11 05:04:27;;;;;;;2.60;2.40;;;;;;;16.09;61.22;97637.16;8482742;27;20240;-69
2023/05/11 05:08:30;;;;;;;2.90;2.60;;;;;;;15.99;61.51;97634.38;8482868;27;20226;-69
2023/05/11 05:12:33;;;;;;;2.80;2.60;;;;;;;16.02;61.53;97636.78;8482680;27;20231;-69
2023/05/11 05:16:35;;;;;;;2.80;2.60;;;;;;;16.07;61.89;97636.41;8482465;27;20234;-68
2023/05/11 05:20:40;;;;;;;2.63;2.43;;;;;;;16.04;62.26;97634.88;8482608;27;20227;-69
2023/05/11 05:24:42;;;;;;;3.33;3.07;;;;;;;15.95;62.02;97644.19;8481996;27;20237;-69
2023/05/11 05:28:45;;;;;;;2.83;2.63;;;;;;;15.91;62.11;97642.75;8482158;28;20227;-68
2023/05/11 05:32:48;;;;;;;2.67;2.47;;;;;;;15.96;62.09;97648.47;8481922;28;20223;-68
2023/05/11 05:36:52;;;;;;;2.83;2.63;;;;;;;16.00;62.41;97649.09;8482168;28;20572;-68
2023/05/11 05:40:54;;;;;;;2.57;2.37;;;;;;;15.96;63.09;97658.94;8480889;28;20231;-68
2023/05/11 05:44:57;;;;;;;2.80;2.60;;;;;;;15.99;62.50;97645.66;8481592;27;20232;-68
2023/05/11 05:49:00;;;;;;;2.73;2.40;;;;;;;16.08;61.69;97662.44;8481393;27;20320;-69
2023/05/11 05:53:04;;;;;;;8.03;2.53;;;;;;;16.05;61.78;97665.28;8481194;27;20232;-69
2023/05/11 05:57:07;;;;;;;2.60;2.40;;;;;;;15.86;62.89;97668.38;8481076;28;20227;-68
2023/05/11 06:01:10;;;;;;;2.53;2.33;;;;;;;16.10;62.63;97665.78;8481173;28;20235;-69
2023/05/11 06:05:12;;;;;;;3.43;2.53;;;;;;;16.15;62.08;97671.50;8480954;27;20234;-69
2023/05/11 06:09:16;;;;;;;3.20;2.40;;;;;;;16.34;61.24;97667.59;8481088;28;20453;-69
2023/05/11 06:13:19;;;;;;;2.87;2.30;;;;;;;16.36;61.46;97670.91;8463636;28;20223;-69
2023/05/11 06:17:22;;;;;;;2.67;2.47;;;;;;;16.54;63.39;97669.56;8480960;28;20223;-68
2023/05/11 06:21:25;;;;;;;4.47;1.80;;;;;;;16.78;64.75;97672.16;8480706;27;20566;-68
2023/05/11 06:25:29;;;;;;;2.90;1.87;;;;;;;16.73;61.25;97653.34;8480269;28;20237;-68
2023/05/11 06:29:32;;;;;;;2.17;1.70;;;;;;;16.73;62.04;97657.75;8480613;28;20454;-68
2023/05/11 06:33:35;;;;;;;1.73;1.63;;;;;;;16.92;61.67;97659.84;8480445;27;20404;-68
2023/05/11 06:37:37;;;;;;;2.23;1.77;;;;;;;17.04;60.92;97665.94;8480302;28;20237;-68
2023/05/11 06:41:41;;;;;;;2.43;2.23;;;;;;;16.42;61.42;97600.72;8480035;28;20411;-69
2023/05/11 06:45:45;;;;;;;2.40;2.10;;;;;;;16.72;60.95;97658.72;8480281;28;20282;-69
2023/05/11 06:49:48;;;;;;;2.00;1.90;;;;;;;16.60;60.95;97656.06;8480068;28;20223;-69
2023/05/11 06:53:51;;;;;;;3.63;2.00;;;;;;;16.66;61.43;97656.53;8479249;28;20229;-69
2023/05/11 06:57:55;;;;;;;2.60;2.40;;;;;;;16.60;61.09;97657.81;8479599;28;20220;-69
2023/05/11 07:01:58;;;;;;;4.47;2.40;;;;;;;16.74;61.79;97659.44;8479545;27;20232;-69
2023/05/11 07:06:00;;;;;;;3.67;2.30;;;;;;;16.67;61.17;97668.66;8479344;28;20229;-69
2023/05/11 07:10:03;;;;;;;15.67;3.20;;;;;;;16.86;61.00;97666.38;8479796;28;20233;-69
2023/05/11 07:14:08;;;;;;;2.33;2.23;;;;;;;16.89;60.65;97665.31;8479386;27;20233;-69
2023/05/11 07:18:11;;;;;;;2.33;2.13;;;;;;;16.80;61.88;97672.84;8479778;28;20381;-69
2023/05/11 07:22:16;;;;;;;3.77;2.43;;;;;;;16.64;61.73;97654.06;8478999;28;20343;-69
2023/05/11 07:26:18;;;;;;;2.97;2.53;;;;;;;16.78;61.97;97672.16;8470667;28;20226;-69
2023/05/11 07:30:23;;;;;;;2.73;2.53;;;;;;;16.63;61.19;97669.84;8479179;27;20229;-69
2023/05/11 07:34:26;;;;;;;2.80;2.60;;;;;;;16.65;61.46;97667.94;8479276;28;20233;-69
2023/05/11 07:38:29;;;;;;;4.07;2.50;;;;;;;16.74;62.04;97675.13;8479384;28;20294;-69
2023/05/11 07:42:32;;;;;;;2.53;2.30;;;;;;;16.42;61.65;97670.47;8478700;28;20237;-70
2023/05/11 07:46:36;;;;;;;2.43;2.27;;;;;;;16.55;61.73;97679.06;8478901;27;20529;-69
2023/05/11 07:50:40;;;;;;;2.47;2.27;;;;;;;16.56;62.67;97682.50;8479195;28;20520;-69
2023/05/11 07:54:42;;;;;;;2.10;2.00;;;;;;;16.54;61.43;97677.38;8479244;28;20225;-69
2023/05/11 07:58:45;;;;;;;3.30;2.10;;;;;;;16.65;61.49;97676.63;8478978;27;20427;-69
2023/05/11 08:02:49;;;;;;;2.83;2.30;;;;;;;16.61;61.91;97675.19;8478734;28;20287;-69
2023/05/11 08:06:52;;;;;;;3.97;1.93;;;;;;;16.85;61.89;97666.47;8483447;27;20392;-69
2023/05/11 08:10:55;;;;;;;2.67;2.10;;;;;;;16.63;62.29;97660.22;8484358;27;20231;-69
2023/05/11 08:14:58;;;;;;;2.43;2.10;;;;;;;16.87;61.38;97675.91;8485225;28;20396;-69
2023/05/11 08:19:02;;;;;;;3.13;2.80;;;;;;;16.85;61.50;97672.56;8484763;27;20226;-69
2023/05/11 08:23:05;;;;;;;2.67;2.30;;;;;;;16.92;61.08;97675.53;8484492;28;20283;-69
2023/05/11 08:27:08;;;;;;;2.20;2.00;;;;;;;16.96;60.88;97679.59;8484250;27;20239;-68
2023/05/11 08:31:10;;;;;;;3.57;2.40;;;;;;;16.31;61.45;97578.94;8484044;27;20230;-68
2023/05/11 08:35:15;;;;;;;2.13;1.97;;;;;;;16.80;61.55;97670.25;8484518;27;20230;-69
2023/05/11 08:39:21;;;;;;;2.50;2.30;;;;;;;16.66;61.40;97674.81;8475578;27;20230;-71
2023/05/11 08:43:45;;;;;;;2.57;2.33;;;;;;;16.77;61.85;97686.19;8484339;27;20267;-68
2023/05/11 08:47:49;;;;;;;2.57;2.37;;;;;;;16.21;62.12;97584.03;8484036;27;20419;-70
2023/05/11 08:51:53;;;;;;;2.63;2.30;;;;;;;16.81;63.03;97676.31;8483578;27;20519;-69
2023/05/11 08:55:58;;;;;;;3.70;2.03;;;;;;;16.96;62.10;97683.06;8483773;27;20509;-68
2023/05/11 09:00:01;;;;;;;2.57;2.10;;;;;;;16.94;61.31;97677.09;8483155;27;20231;-69
2023/05/11 09:04:06;;;;;;;2.53;2.00;;;;;;;16.79;61.23;97675.59;8483208;27;20250;-70
2023/05/11 09:08:12;;;;;;;3.20;2.45;;;;;;;16.85;59.27;97574.94;8482704;27;20403;-68
2023/05/11 09:12:16;;;;;;;2.20;2.00;;;;;;;16.91;60.27;97669.50;8483021;28;20235;-69
2023/05/11 09:16:19;;;;;;;2.43;1.90;;;;;;;16.33;60.55;97566.59;8474377;27;20227;-70
2023/05/11 09:20:43;;;;;;;2.10;1.90;;;;;;;16.90;61.52;97680.88;8482559;27;20242;-69
2023/05/11 09:24:47;;;;;;;1.90;1.80;;;;;;;17.12;60.97;97677.50;8482314;28;20231;-69
2023/05/11 09:28:51;;;;;;;2.03;1.90;;;;;;;17.14;61.36;97678.22;8482831;28;20223;-69
2023/05/11 09:33:06;;;;;;;2.17;1.90;;;;;;;17.34;60.36;97679.34;8481254;28;20440;-69
2023/05/11 09:37:16;;;;;;;2.50;1.90;;;;;;;17.00;61.57;97675.78;8482229;27;20235;-69
2023/05/11 09:41:21;;;;;;;2.23;2.03;;;;;;;16.99;61.94;97674.97;8447710;28;20242;-70
2023/05/11 09:45:35;;;;;;;2.28;2.10;;;;;;;17.59;59.32;97669.56;8446383;28;20423;-69
2023/05/11 09:49:37;;;;;;;2.50;2.30;;;;;;;16.99;62.07;97667.13;8448027;28;20245;-69
2023/05/11 09:53:43;;;;;;;2.20;2.10;;;;;;;16.92;61.91;97660.69;8447836;27;20249;-69
2023/05/11 09:57:53;;;;;;;3.00;2.77;;;;;;;16.56;62.57;97653.75;8447548;27;20234;-69
2023/05/11 10:01:55;;;;;;;2.70;2.50;;;;;;;16.91;61.84;97668.66;8447699;28;20455;-69
2023/05/11 10:06:00;;;;;;;2.77;2.57;;;;;;;16.85;62.42;97664.72;8447745;28;20446;-70
2023/05/11 10:10:05;;;;;;;2.80;2.60;;;;;;;17.02;61.63;97658.22;8447339;27;20224;-70
2023/05/11 10:14:10;;;;;;;2.57;2.23;;;;;;;16.99;62.67;97668.91;8447121;27;20237;-69
2023/05/11 10:18:13;;;;;;;2.63;2.10;;;;;;;17.02;62.00;97660.00;8447227;28;20237;-69
2023/05/11 10:22:17;;;;;;;2.73;2.63;;;;;;;16.91;62.77;97647.75;8447161;28;20281;-70
2023/05/11 10:26:20;;;;;;;3.00;2.80;;;;;;;17.08;62.14;97641.25;8446710;28;20230;-70
2023/05/11 10:30:24;;;;;;;3.63;2.90;;;;;;;16.82;62.46;97649.25;8446330;28;20234;-69
2023/05/11 10:34:28;;;;;;;3.43;3.17;;;;;;;16.71;63.03;97623.88;8446668;28;20238;-69
2023/05/11 10:38:31;;;;;;;2.77;2.67;;;;;;;17.03;62.71;97636.34;8446495;27;20553;-71
2023/05/11 10:42:57;;;;;;;3.87;3.00;;;;;;;17.02;62.86;97626.84;8446388;27;20239;-69
2023/05/11 10:47:16;;;;;;;3.30;3.10;;;;;;;17.08;62.15;97649.09;8446025;28;20234;-69
2023/05/11 10:51:33;;;;;;;3.47;3.27;;;;;;;16.72;62.86;97640.41;8446147;27;20227;-69
2023/05/11 10:55:50;;;;;;;3.70;2.80;;;;;;;17.14;62.86;97646.00;8446501;28;20235;-69
2023/05/11 11:00:29;;;;;;;3.67;2.90;;;;;;;17.19;62.76;97641.22;8446032;28;20227;-69
2023/05/11 11:04:45;;;;;;;2.80;2.60;;;;;;;16.84;62.98;97612.53;8473312;28;20252;-69
2023/05/11 11:08:58;;;;;;;2.60;2.40;;;;;;;17.18;62.69;97643.00;8480124;28;20227;-69
2023/05/11 11:13:02;;;;;;;2.80;2.60;;;;;;;17.10;62.90;97641.94;8479601;28;20227;-67
2023/05/11 11:17:23;;;;;;;2.80;2.60;;;;;;;16.79;62.70;97618.91;8479844;27;20229;-67
2023/05/11 11:21:41;;;;;;;2.40;2.30;;;;;;;17.11;62.56;97633.13;8479491;28;20271;-68
2023/05/11 11:25:53;;;;;;;2.70;2.50;;;;;;;16.93;62.71;97630.16;8479933;28;20297;-68
2023/05/11 11:30:15;;;;;;;2.83;2.57;;;;;;;17.10;63.11;97621.03;8479833;28;20234;-68
2023/05/11 11:34:37;;;;;;;4.23;2.70;;;;;;;17.21;61.96;97631.50;8470583;28;20247;-69
2023/05/11 11:39:00;;;;;;;2.97;2.77;;;;;;;17.13;62.80;97631.22;8478650;28;20224;-68
2023/05/11 11:43:11;;;;;;;2.40;2.20;;;;;;;17.07;61.68;97629.91;8485597;28;20530;-68
2023/05/11 11:47:15;;;;;;;3.70;3.40;;;;;;;17.10;62.30;97629.69;8485302;28;20225;-68
2023/05/11 11:51:18;;;;;;;3.83;3.63;;;;;;;16.88;63.77;97633.09;8476522;27;20398;-71
2023/05/11 11:55:45;;;;;;;4.20;3.80;;;;;;;17.13;63.30;97629.44;8485082;27;20423;-67
2023/05/11 11:59:48;;;;;;;3.93;3.63;;;;;;;16.88;63.00;97629.66;8485226;28;20231;-68
2023/05/11 12:04:10;;;;;;;3.93;3.70;;;;;;;16.83;63.79;97626.53;8484951;28;20226;-68
2023/05/11 12:08:15;;;;;;;3.90;3.60;;;;;;;16.72;63.57;97636.00;8484835;27;20225;-68
2023/05/11 12:12:20;;;;;;;3.37;3.17;;;;;;;16.98;63.06;97638.47;8475754;28;20227;-69
2023/05/11 12:16:23;;;;;;;3.80;3.13;;;;;;;16.71;63.42;97636.09;8484931;27;20228;-68
2023/05/11 12:20:26;;;;;;;2.97;2.77;;;;;;;16.91;63.75;97639.91;8484254;27;20237;-68
2023/05/11 12:24:30;;;;;;;3.43;3.23;;;;;;;16.93;63.42;97628.34;8484376;27;20238;-68
2023/05/11 12:28:35;;;;;;;4.07;3.67;;;;;;;16.52;65.31;97637.47;8484188;27;20226;-68
2023/05/11 12:32:39;;;;;;;3.83;3.53;;;;;;;16.78;65.10;97624.25;8483629;27;20285;-68
2023/05/11 12:36:43;;;;;;;3.60;3.30;;;;;;;17.37;62.13;97637.19;8481693;28;20472;-68
2023/05/11 12:40:48;;;;;;;3.17;2.97;;;;;;;17.05;64.33;97638.84;8483616;27;20418;-68
2023/05/11 12:44:54;;;;;;;3.07;2.87;;;;;;;17.00;63.51;97619.09;8483971;27;20225;-67
2023/05/11 12:48:58;;;;;;;3.53;3.20;;;;;;;16.81;64.89;97637.94;8483604;27;20218;-67
2023/05/11 12:53:14;;;;;;;3.93;3.10;;;;;;;16.78;64.90;97632.09;8482871;27;20512;-67
2023/05/11 12:57:24;;;;;;;4.07;2.77;;;;;;;16.80;64.06;97609.28;8483072;28;20238;-67
2023/05/11 13:01:32;;;;;;;3.43;3.13;;;;;;;16.91;64.31;97634.66;8449310;28;20545;-67
2023/05/11 13:05:35;;;;;;;3.40;3.10;;;;;;;16.60;65.03;97611.63;8449096;27;20277;-68
2023/05/11 13:09:38;;;;;;;2.80;2.60;;;;;;;16.72;64.14;97632.56;8449114;28;20237;-68
2023/05/11 13:13:41;;;;;;;3.65;3.35;;;;;;;16.86;64.21;97627.16;8448670;28;20579;-67
2023/05/11 13:17:45;;;;;;;3.23;3.03;;;;;;;16.74;64.48;97620.19;8448979;27;20533;-67
2023/05/11 13:21:48;;;;;;;3.50;3.20;;;;;;;16.75;64.78;97621.84;8448775;28;20390;-68
2023/05/11 13:25:53;;;;;;;3.73;2.90;;;;;;;16.67;64.67;97622.44;8448662;28;20237;-67
2023/05/11 13:29:56;;;;;;;3.43;3.13;;;;;;;16.84;64.75;97618.59;8448203;27;20225;-67
2023/05/11 13:34:00;;;;;;;3.03;2.83;;;;;;;16.80;64.99;97602.25;8448074;28;20231;-67
2023/05/11 13:38:02;;;;;;;2.73;2.53;;;;;;;16.80;65.08;97614.50;8448073;28;20334;-67
2023/05/11 13:42:06;;;;;;;3.47;2.87;;;;;;;16.93;64.48;97611.84;8447990;28;20237;-67
2023/05/11 13:46:09;;;;;;;2.73;2.60;;;;;;;16.75;64.71;97619.25;8448278;28;20231;-67
2023/05/11 13:50:14;;;;;;;3.93;2.57;;;;;;;16.70;64.32;97611.75;8447855;28;20238;-67
2023/05/11 13:54:17;;;;;;;2.80;2.60;;;;;;;16.41;65.30;97613.91;8447394;28;20243;-67
2023/05/11 13:58:20;;;;;;;3.07;2.80;;;;;;;16.50;66.01;97601.94;8472831;27;20233;-68
2023/05/11 14:02:23;;;;;;;3.53;3.17;;;;;;;16.64;65.53;97609.59;8480517;27;20229;-67
2023/05/11 14:06:27;;;;;;;3.40;3.20;;;;;;;16.31;65.05;97565.88;8480689;28;20235;-67
2023/05/11 14:10:30;;;;;;;3.37;3.17;;;;;;;16.57;65.34;97577.03;8480952;28;20228;-67
2023/05/11 14:14:33;;;;;;;3.10;2.60;;;;;;;16.88;65.67;97603.50;8480831;27;20260;-67
2023/05/11 14:18:36;;;;;;;3.07;2.83;;;;;;;16.80;64.96;97611.91;8480575;28;20235;-67
2023/05/11 14:22:40;;;;;;;2.97;2.77;;;;;;;16.74;64.63;97601.91;8480350;27;20226;-67
2023/05/11 14:26:43;;;;;;;3.00;2.80;;;;;;;16.81;64.86;97613.53;8480175;27;20228;-68
2023/05/11 14:30:46;;;;;;;2.97;2.77;;;;;;;16.65;65.27;97613.88;8480367;28;20232;-68
2023/05/11 14:34:49;;;;;;;2.75;2.50;;;;;;;17.34;63.04;97628.75;8478869;28;20605;-70
2023/05/11 14:38:53;;;;;;;2.50;2.30;;;;;;;16.93;64.31;97617.91;8480225;27;20221;-67
2023/05/11 14:42:55;;;;;;;3.67;3.43;;;;;;;16.92;64.54;97597.09;8480321;27;20228;-67
2023/05/11 14:46:58;;;;;;;2.60;2.40;;;;;;;17.16;64.95;97603.06;8480122;28;20248;-67
2023/05/11 14:51:02;;;;;;;2.60;2.40;;;;;;;16.95;65.33;97595.06;8480122;28;20229;-67
2023/05/11 14:55:09;;;;;;;2.87;2.30;;;;;;;17.14;64.12;97597.09;8479694;27;20330;-67
2023/05/11 14:59:12;;;;;;;2.40;2.20;;;;;;;16.99;64.74;97595.66;8480022;28;20255;-67
2023/05/11 15:03:15;;;;;;;2.80;2.60;;;;;;;17.02;65.48;97597.22;8479799;28;20551;-68
2023/05/11 15:07:18;;;;;;;3.87;2.97;;;;;;;17.00;65.55;97592.94;8471026;28;20237;-69
2023/05/11 15:11:22;;;;;;;2.63;2.43;;;;;;;16.66;65.49;97551.94;8480021;27;20234;-70
2023/05/11 15:15:27;;;;;;;2.70;2.50;;;;;;;16.92;65.13;97586.63;8484328;28;20233;-67
2023/05/11 15:19:30;;;;;;;3.17;2.87;;;;;;;17.00;65.31;97600.78;8486738;27;20234;-68
2023/05/11 15:23:33;;;;;;;3.10;2.90;;;;;;;16.97;65.07;97590.56;8486583;27;20229;-72
2023/05/11 15:27:38;;;;;;;3.17;2.93;;;;;;;17.02;65.53;97595.44;8486360;27;20271;-69
2023/05/11 15:31:40;;;;;;;3.13;2.80;;;;;;;17.02;65.25;97599.81;8486157;28;20234;-68
2023/05/11 15:35:43;;;;;;;3.13;2.83;;;;;;;16.98;65.09;97591.38;8485821;28;20253;-68
2023/05/11 15:39:46;;;;;;;3.33;2.80;;;;;;;16.99;64.99;97600.91;8485411;27;20233;-68
2023/05/11 15:43:52;;;;;;;3.90;3.10;;;;;;;16.91;65.20;97608.50;8485561;28;20456;-69
2023/05/11 15:47:54;;;;;;;3.50;3.20;;;;;;;16.88;65.39;97606.13;8485628;27;20232;-69
2023/05/11 15:51:58;;;;;;;4.00;2.70;;;;;;;16.97;65.62;97610.66;8485393;27;20226;-69
2023/05/11 15:56:00;;;;;;;2.80;2.60;;;;;;;16.87;66.08;97602.69;8485420;28;20229;-69
2023/05/11 16:00:08;;;;;;;2.40;2.20;;;;;;;16.39;65.42;97516.50;8485415;28;20233;-69
2023/05/11 16:04:11;;;;;;;2.43;2.23;;;;;;;16.91;65.36;97604.09;8484563;27;20237;-68
2023/05/11 16:08:14;;;;;;;2.20;2.10;;;;;;;16.81;65.89;97613.53;8484770;28;20443;-69
2023/05/11 16:12:17;;;;;;;2.50;2.20;;;;;;;16.76;66.09;97606.06;8484755;27;20241;-69
2023/05/11 16:16:21;;;;;;;2.40;2.30;;;;;;;16.75;66.26;97611.41;8475839;28;20230;-69
2023/05/11 16:20:24;;;;;;;2.20;2.00;;;;;;;16.71;66.34;97599.50;8484346;27;20252;-69
2023/05/11 16:24:28;;;;;;;4.00;2.60;;;;;;;16.73;66.89;97610.69;8483781;28;20242;-69
2023/05/11 16:28:33;;;;;;;3.10;2.90;;;;;;;16.69;67.02;97617.91;8484002;27;20226;-69
2023/05/11 16:32:37;;;;;;;3.10;2.90;;;;;;;16.76;66.72;97619.13;8482854;27;20408;-69
2023/05/11 16:36:41;;;;;;;2.60;2.40;;;;;;;16.36;68.45;97624.69;8483880;28;20322;-69
2023/05/11 16:40:44;;;;;;;2.40;2.20;;;;;;;15.76;69.90;97625.56;8483376;28;20236;-69
2023/05/11 16:44:46;;;;;;;1.90;1.80;;;;;;;15.72;68.87;97632.75;8483477;27;20236;-69
2023/05/11 16:48:51;;;;;;;1.70;1.60;;;;;;;15.51;68.62;97627.25;8483706;27;20236;-69
2023/05/11 16:52:53;;;;;;;1.70;1.60;;;;;;;16.17;66.28;97619.16;8483331;28;20251;-69
2023/05/11 16:56:56;;;;;;;2.03;1.93;;;;;;;15.99;65.75;97632.59;8483291;27;20226;-69
2023/05/11 17:00:59;;;;;;;1.40;1.30;;;;;;;16.06;64.68;97609.47;8483045;27;20230;-68
2023/05/11 17:05:04;;;;;;;1.60;1.50;;;;;;;16.09;65.35;97613.63;8482853;28;20236;-69
2023/05/11 17:09:07;;;;;;;1.70;1.60;;;;;;;16.22;64.01;97619.63;8482779;28;20233;-70
2023/05/11 17:13:10;;;;;;;1.90;1.77;;;;;;;15.95;65.26;97617.25;8482803;27;20433;-69
2023/05/11 17:17:12;;;;;;;3.00;1.43;;;;;;;14.77;67.07;97610.59;8482733;28;20506;-69
2023/05/11 17:21:16;;;;;;;2.73;1.30;;;;;;;14.57;67.46;97624.97;8482475;27;20539;-68
2023/05/11 17:25:19;;;;;;;1.37;1.27;;;;;;;13.60;69.57;97507.03;8473753;28;20227;-68
2023/05/11 17:29:22;;;;;;;1.70;1.60;;;;;;;14.10;70.06;97611.44;8482312;28;20234;-69
2023/05/11 17:33:25;;;;;;;1.60;1.50;;;;;;;14.08;71.72;97616.75;8482179;28;20291;-69
2023/05/11 17:37:29;;;;;;;1.83;1.53;;;;;;;13.69;72.74;97625.34;8482230;28;20427;-69
2023/05/11 17:41:34;;;;;;;1.57;1.20;;;;;;;13.95;69.38;97633.25;8481815;28;20238;-68
2023/05/11 17:45:37;;;;;;;1.00;0.90;;;;;;;13.66;68.74;97643.72;8482012;27;20428;-68
2023/05/11 17:49:40;;;;;;;2.70;1.20;;;;;;;14.33;67.14;97643.00;8481929;28;20246;-70
2023/05/11 17:53:44;;;;;;;2.40;0.90;;;;;;;14.04;68.82;97648.28;8481615;27;20227;-69
2023/05/11 17:57:47;;;;;;;0.90;0.90;;;;;;;13.71;68.03;97594.84;8481444;28;20234;-70
2023/05/11 18:01:50;;;;;;;1.10;1.00;;;;;;;13.88;69.78;97661.47;8481475;27;20231;-67
2023/05/11 18:05:54;;;;;;;0.93;0.93;;;;;;;14.14;69.95;97658.97;8481252;28;20529;-70
2023/05/11 18:10:01;;;;;;;1.53;1.43;;;;;;;14.54;68.81;97672.84;8481162;28;20552;-68
2023/05/11 18:14:04;;;;;;;3.20;2.20;;;;;;;14.57;69.00;97677.91;8480884;28;20232;-68
2023/05/11 18:18:06;;;;;;;2.40;2.20;;;;;;;14.37;69.78;97658.31;8480796;28;20233;-68
2023/05/11 18:22:10;;;;;;;2.20;2.10;;;;;;;14.00;70.80;97678.91;8480715;27;20245;-69
2023/05/11 18:26:15;;;;;;;3.27;3.07;;;;;;;14.84;68.30;97674.41;8480840;28;20534;-69
2023/05/11 18:30:17;;;;;;;2.70;2.50;;;;;;;14.79;69.12;97687.78;8480712;27;20234;-68
2023/05/11 18:34:21;;;;;;;4.50;4.10;;;;;;;14.57;69.12;97688.31;8472180;27;20232;-68
2023/05/11 18:38:23;;;;;;;3.87;2.53;;;;;;;14.58;69.08;97691.75;8480200;28;20306;-68
2023/05/11 18:42:27;;;;;;;2.33;2.20;;;;;;;14.23;69.85;97679.22;8479973;28;20236;-68
2023/05/11 18:46:30;;;;;;;1.60;1.50;;;;;;;14.65;68.30;97691.25;8480214;27;20230;-67
2023/05/11 18:50:33;;;;;;;1.97;1.87;;;;;;;14.52;68.76;97689.53;8479851;28;20230;-67
2023/05/11 18:54:36;;;;;;;2.13;1.90;;;;;;;14.03;69.80;97689.13;8480216;28;20249;-68
2023/05/11 18:58:40;;;;;;;2.20;2.10;;;;;;;14.53;68.62;97686.00;8479303;28;20225;-68
2023/05/11 19:02:43;;;;;;;3.00;2.60;;;;;;;14.34;68.49;97687.19;8478842;28;20235;-68
2023/05/11 19:06:46;;;;;;;3.03;2.83;;;;;;;13.99;70.32;97705.88;8480068;28;20229;-68
2023/05/11 19:10:49;;;;;;;3.20;2.90;;;;;;;14.26;67.99;97686.84;8479987;28;20222;-69
2023/05/11 19:14:55;;;;;;;2.97;2.77;;;;;;;14.87;67.01;97700.31;8479556;27;20222;-67